King of Scandinavia — OVOL2 — position and weather

sailwx.info

Track history (hours):
 
Tides and Currents Weather Stations Pressure Air Temp Water Temp Dewpoint Dewpoint Depression Visibility Wind Speed Wind Dir Waves Ship Positions

King of Scandinavia

Ship's website: http://www.dfds.co.uk/DSW/EN/OnBoard/na/KING.htm

Last reported at 2014-Sep-17 07:33 UTC. Time now 2014-Sep-17 07:37 UTC.
Position N 52°28' E 004°35'.

Length 166 m; beam 27.6 m; draft 6.2 m.

Type: Passenger vessel. MMSI: 220449000.

Date/timePositionNaut miles runAvg speedWind from/ knotsBaromVisibWave heightAir tempDewpointWater temp
2014-Sep-17 07:33N 52°28' E 004°35'1413.5
2014-Sep-17 06:33N 52°36' E 004°17'1616.3
2014-Sep-17 05:33N 52°46' E 003°57'14217.0
2014-Sep-16 21:14N 54°12' E 000°46'1218.3
2014-Sep-16 20:33N 54°18' E 000°28'1818.1
2014-Sep-16 19:33N 54°28' E 000°02'1818.0
2014-Sep-16 18:33N 54°38' W 000°24'1817.9
2014-Sep-16 17:33N 54°48' W 000°50'1817.7
2014-Sep-16 16:33N 54°58' W 001°16'1 0.2
2014-Sep-16 07:20N 54°57' W 001°13'1417.4
2014-Sep-16 06:33N 54°50' W 000°53'1917.7
2014-Sep-16 05:30N 54°40' W 000°26'1718.2
2014-Sep-16 04:33N 54°30' W 000°02'1918.5
2014-Sep-16 03:33N 54°20' E 000°25'1717.1
2014-Sep-16 02:33N 54°11' E 000°50'15415.4
2014-Sep-15 16:33N 52°37' E 004°15'1514.8
2014-Sep-15 15:33N 52°28' E 004°34'1 0.7
2014-Sep-15 14:31N 52°28' E 004°35'0 0.0
2014-Sep-15 13:31N 52°28' E 004°35'0 0.0
2014-Sep-15 12:31N 52°28' E 004°35'0 0.0
2014-Sep-15 11:31N 52°28' E 004°35'0 0.0
2014-Sep-15 10:31N 52°28' E 004°35'0 0.0
2014-Sep-15 09:31N 52°28' E 004°35'0 0.0
2014-Sep-15 08:31N 52°28' E 004°35'0 0.0
2014-Sep-15 07:34N 52°28' E 004°35'1110.9
2014-Sep-15 06:33N 52°34' E 004°20'1714.5
2014-Sep-15 05:24N 52°45' E 003°60'14317.5
2014-Sep-14 21:14N 54°11' E 000°47'1318.7
2014-Sep-14 20:33N 54°18' E 000°29'1918.7
2014-Sep-14 19:33N 54°28' E 000°02'1918.7
2014-Sep-14 18:33N 54°39' W 000°24'1918.3
2014-Sep-14 17:31N 54°49' W 000°52'1718.0
2014-Sep-14 16:33N 54°58' W 001°17'2 0.2
2014-Sep-14 07:31N 54°58' W 001°14'1717.4
2014-Sep-14 06:34N 54°49' W 000°50'1817.2
2014-Sep-14 05:31N 54°39' W 000°24'1717.5
2014-Sep-14 04:33N 54°30' W 000°00'1818.0
2014-Sep-14 03:33N 54°20' E 000°26'1716.7
2014-Sep-14 02:33N 54°11' E 000°50'15515.3
2014-Sep-13 16:27N 52°37' E 004°16'1314.8
2014-Sep-13 15:34N 52°28' E 004°32'2 1.8
2014-Sep-13 14:31N 52°28' E 004°35'0 0.0
2014-Sep-13 13:31N 52°28' E 004°35'0 0.0
2014-Sep-13 12:31N 52°28' E 004°35'0 0.0
2014-Sep-13 11:31N 52°28' E 004°35'0 0.0
2014-Sep-13 10:31N 52°28' E 004°35'0 0.0
2014-Sep-13 09:31N 52°28' E 004°35'0 0.0
2014-Sep-13 08:28N 52°28' E 004°35'0 0.0
2014-Sep-13 07:34N 52°28' E 004°35'1212.0
2014-Sep-13 06:33N 52°35' E 004°19'1716.9
2014-Sep-13 05:33N 52°46' E 003°59'1917.2
2014-Sep-13 04:29N 52°58' E 003°35'12017.3
2014-Sep-12 21:32N 54°10' E 000°52'1818.1
2014-Sep-12 20:33N 54°20' E 000°27'1918.6
2014-Sep-12 19:33N 54°30' E 000°00'1919.2
2014-Sep-12 18:33N 54°41' W 000°27'2418.8
2014-Sep-12 17:16N 54°54' W 001°03'1318.4
2014-Sep-12 16:32N 55°00' W 001°23'3 0.3
2014-Sep-12 07:30N 54°60' W 001°18'1614.4
2014-Sep-12 06:21N 54°51' W 000°53'2016.0
2014-Sep-12 05:06N 54°41' W 000°24'916.5
2014-Sep-12 04:34N 54°35' W 000°12'1716.9
2014-Sep-12 03:34N 54°26' E 000°12'1817.7
2014-Sep-12 02:34N 54°16' E 000°38'14916.6
2014-Sep-11 17:33N 52°46' E 003°58'1615.7
2014-Sep-11 16:33N 52°36' E 004°18'1313.2
2014-Sep-11 15:33N 52°28' E 004°35'0 0.0
2014-Sep-11 14:33N 52°28' E 004°35'0 0.0
2014-Sep-11 13:33N 52°28' E 004°35'0 0.0
2014-Sep-11 12:33N 52°28' E 004°35'0 0.0
2014-Sep-11 11:33N 52°28' E 004°35'0 0.0
2014-Sep-11 10:33N 52°28' E 004°35'0 0.0
2014-Sep-11 09:33N 52°28' E 004°35'0 0.0
2014-Sep-11 08:33N 52°28' E 004°35'0 0.0
2014-Sep-11 07:34N 52°28' E 004°35'1312.8
2014-Sep-11 06:33N 52°36' E 004°19'1919.0
2014-Sep-11 05:33N 52°49' E 003°56'5818.6
2014-Sep-11 02:28N 53°25' E 002°41'8416.8
2014-Sep-10 21:29N 54°13' E 000°44'1617.3
2014-Sep-10 20:33N 54°22' E 000°22'1817.9
2014-Sep-10 19:33N 54°31' W 000°04'1918.6
2014-Sep-10 18:33N 54°42' W 000°31'1918.6
2014-Sep-10 17:33N 54°52' W 000°58'1817.7
2014-Sep-10 16:32N 55°01' W 001°26'21 2.1
2014-Sep-10 06:18N 54°50' W 000°53'1817.1
2014-Sep-10 05:15N 54°41' W 000°26'1116.3
2014-Sep-10 04:33N 54°34' W 000°10'1616.3
2014-Sep-10 03:33N 54°25' E 000°12'1716.6
2014-Sep-10 02:33N 54°16' E 000°36'5918.6
2014-Sep-09 23:24N 53°44' E 001°60'9515.9
2014-Sep-09 17:26N 52°44' E 004°03'1315.0
2014-Sep-09 16:33N 52°35' E 004°19'1212.1
2014-Sep-09 15:33N 52°28' E 004°35'0 0.0
2014-Sep-09 14:32N 52°28' E 004°35'0 0.0
2014-Sep-09 13:32N 52°28' E 004°35'0 0.0
2014-Sep-09 12:32N 52°28' E 004°35'0 0.0
2014-Sep-09 11:32N 52°28' E 004°35'0 0.0
2014-Sep-09 10:32N 52°28' E 004°35'0 0.0
2014-Sep-09 09:29N 52°28' E 004°35'0 0.0
2014-Sep-09 08:32N 52°28' E 004°35'0 0.0
2014-Sep-09 07:34N 52°28' E 004°35'1111.0
2014-Sep-09 06:33N 52°34' E 004°20'234204.1
2014-Sep-09 05:25N 54°53' W 000°58'71 8.9
2014-Sep-08 21:28N 54°14' E 000°44'1517.2
2014-Sep-08 20:34N 54°22' E 000°21'1716.8
2014-Sep-08 19:34N 54°31' W 000°03'1717.2
2014-Sep-08 18:34N 54°41' W 000°28'2518.1
2014-Sep-08 17:10N 54°55' W 001°04'1218.4
2014-Sep-08 16:33N 55°00' W 001°21'0 0.0
2014-Sep-08 07:23N 55°00' W 001°21'2017.9
2014-Sep-08 06:15N 54°50' W 000°51'1715.8
2014-Sep-08 05:11N 54°40' W 000°26'1016.5
2014-Sep-08 04:33N 54°35' W 000°12'1616.3
2014-Sep-08 03:33N 54°26' E 000°12'1616.1
2014-Sep-08 02:32N 54°16' E 000°34'1716.5
2014-Sep-08 01:31N 54°07' E 000°59'10517.6
2014-Sep-07 19:33N 53°04' E 003°21'4514.5
2014-Sep-07 16:29N 52°36' E 004°18'1314.1
2014-Sep-07 15:33N 52°28' E 004°34'0 0.4
2014-Sep-07 14:32N 52°28' E 004°35'0 0.0
2014-Sep-07 13:32N 52°28' E 004°35'0 0.0
2014-Sep-07 12:32N 52°28' E 004°35'0 0.0
2014-Sep-07 11:32N 52°28' E 004°35'0 0.0
2014-Sep-07 10:32N 52°28' E 004°35'0 0.0
2014-Sep-07 09:32N 52°28' E 004°35'0 0.0
2014-Sep-07 08:32N 52°28' E 004°35'0 0.1
2014-Sep-07 07:33N 52°28' E 004°35'  
Track history (hours):
 
Tides and Currents Weather Stations Pressure Air Temp Water Temp Dewpoint Dewpoint Depression Visibility Wind Speed Wind Dir Waves Ship Positions

King of Scandinavia

Ship's website: http://www.dfds.co.uk/DSW/EN/OnBoard/na/KING.htm

Last reported at 2014-Sep-17 07:33 UTC. Time now 2014-Sep-17 07:37 UTC.
Position N 52°28' E 004°35'.

Length 166 m; beam 27.6 m; draft 6.2 m.

Type: Passenger vessel. MMSI: 220449000.

Date/timePositionNaut miles runAvg speedWind from/ knotsBaromVisibWave heightAir tempDewpointWater temp
2014-Sep-17 07:33N 52°28' E 004°35'1413.5
2014-Sep-17 06:33N 52°36' E 004°17'1616.3
2014-Sep-17 05:33N 52°46' E 003°57'14217.0
2014-Sep-16 21:14N 54°12' E 000°46'1218.3
2014-Sep-16 20:33N 54°18' E 000°28'1818.1
2014-Sep-16 19:33N 54°28' E 000°02'1818.0
2014-Sep-16 18:33N 54°38' W 000°24'1817.9
2014-Sep-16 17:33N 54°48' W 000°50'1817.7
2014-Sep-16 16:33N 54°58' W 001°16'1 0.2
2014-Sep-16 07:20N 54°57' W 001°13'1417.4
2014-Sep-16 06:33N 54°50' W 000°53'1917.7
2014-Sep-16 05:30N 54°40' W 000°26'1718.2
2014-Sep-16 04:33N 54°30' W 000°02'1918.5
2014-Sep-16 03:33N 54°20' E 000°25'1717.1
2014-Sep-16 02:33N 54°11' E 000°50'15415.4
2014-Sep-15 16:33N 52°37' E 004°15'1514.8
2014-Sep-15 15:33N 52°28' E 004°34'1 0.7
2014-Sep-15 14:31N 52°28' E 004°35'0 0.0
2014-Sep-15 13:31N 52°28' E 004°35'0 0.0
2014-Sep-15 12:31N 52°28' E 004°35'0 0.0
2014-Sep-15 11:31N 52°28' E 004°35'0 0.0
2014-Sep-15 10:31N 52°28' E 004°35'0 0.0
2014-Sep-15 09:31N 52°28' E 004°35'0 0.0
2014-Sep-15 08:31N 52°28' E 004°35'0 0.0
2014-Sep-15 07:34N 52°28' E 004°35'1110.9
2014-Sep-15 06:33N 52°34' E 004°20'1714.5
2014-Sep-15 05:24N 52°45' E 003°60'14317.5
2014-Sep-14 21:14N 54°11' E 000°47'1318.7
2014-Sep-14 20:33N 54°18' E 000°29'1918.7
2014-Sep-14 19:33N 54°28' E 000°02'1918.7
2014-Sep-14 18:33N 54°39' W 000°24'1918.3
2014-Sep-14 17:31N 54°49' W 000°52'1718.0
2014-Sep-14 16:33N 54°58' W 001°17'2 0.2
2014-Sep-14 07:31N 54°58' W 001°14'1717.4
2014-Sep-14 06:34N 54°49' W 000°50'1817.2
2014-Sep-14 05:31N 54°39' W 000°24'1717.5
2014-Sep-14 04:33N 54°30' W 000°00'1818.0
2014-Sep-14 03:33N 54°20' E 000°26'1716.7
2014-Sep-14 02:33N 54°11' E 000°50'15515.3
2014-Sep-13 16:27N 52°37' E 004°16'1314.8
2014-Sep-13 15:34N 52°28' E 004°32'2 1.8
2014-Sep-13 14:31N 52°28' E 004°35'0 0.0
2014-Sep-13 13:31N 52°28' E 004°35'0 0.0
2014-Sep-13 12:31N 52°28' E 004°35'0 0.0
2014-Sep-13 11:31N 52°28' E 004°35'0 0.0
2014-Sep-13 10:31N 52°28' E 004°35'0 0.0
2014-Sep-13 09:31N 52°28' E 004°35'0 0.0
2014-Sep-13 08:28N 52°28' E 004°35'0 0.0
2014-Sep-13 07:34N 52°28' E 004°35'1212.0
2014-Sep-13 06:33N 52°35' E 004°19'1716.9
2014-Sep-13 05:33N 52°46' E 003°59'1917.2
2014-Sep-13 04:29N 52°58' E 003°35'12017.3
2014-Sep-12 21:32N 54°10' E 000°52'1818.1
2014-Sep-12 20:33N 54°20' E 000°27'1918.6
2014-Sep-12 19:33N 54°30' E 000°00'1919.2
2014-Sep-12 18:33N 54°41' W 000°27'2418.8
2014-Sep-12 17:16N 54°54' W 001°03'1318.4
2014-Sep-12 16:32N 55°00' W 001°23'3 0.3
2014-Sep-12 07:30N 54°60' W 001°18'1614.4
2014-Sep-12 06:21N 54°51' W 000°53'2016.0
2014-Sep-12 05:06N 54°41' W 000°24'916.5
2014-Sep-12 04:34N 54°35' W 000°12'1716.9
2014-Sep-12 03:34N 54°26' E 000°12'1817.7
2014-Sep-12 02:34N 54°16' E 000°38'14916.6
2014-Sep-11 17:33N 52°46' E 003°58'1615.7
2014-Sep-11 16:33N 52°36' E 004°18'1313.2
2014-Sep-11 15:33N 52°28' E 004°35'0 0.0
2014-Sep-11 14:33N 52°28' E 004°35'0 0.0
2014-Sep-11 13:33N 52°28' E 004°35'0 0.0
2014-Sep-11 12:33N 52°28' E 004°35'0 0.0
2014-Sep-11 11:33N 52°28' E 004°35'0 0.0
2014-Sep-11 10:33N 52°28' E 004°35'0 0.0
2014-Sep-11 09:33N 52°28' E 004°35'0 0.0
2014-Sep-11 08:33N 52°28' E 004°35'0 0.0
2014-Sep-11 07:34N 52°28' E 004°35'1312.8
2014-Sep-11 06:33N 52°36' E 004°19'1919.0
2014-Sep-11 05:33N 52°49' E 003°56'5818.6
2014-Sep-11 02:28N 53°25' E 002°41'8416.8
2014-Sep-10 21:29N 54°13' E 000°44'1617.3
2014-Sep-10 20:33N 54°22' E 000°22'1817.9
2014-Sep-10 19:33N 54°31' W 000°04'1918.6
2014-Sep-10 18:33N 54°42' W 000°31'1918.6
2014-Sep-10 17:33N 54°52' W 000°58'1817.7
2014-Sep-10 16:32N 55°01' W 001°26'21 2.1
2014-Sep-10 06:18N 54°50' W 000°53'1817.1
2014-Sep-10 05:15N 54°41' W 000°26'1116.3
2014-Sep-10 04:33N 54°34' W 000°10'1616.3
2014-Sep-10 03:33N 54°25' E 000°12'1716.6
2014-Sep-10 02:33N 54°16' E 000°36'5918.6
2014-Sep-09 23:24N 53°44' E 001°60'9515.9
2014-Sep-09 17:26N 52°44' E 004°03'1315.0
2014-Sep-09 16:33N 52°35' E 004°19'1212.1
2014-Sep-09 15:33N 52°28' E 004°35'0 0.0
2014-Sep-09 14:32N 52°28' E 004°35'0 0.0
2014-Sep-09 13:32N 52°28' E 004°35'0 0.0
2014-Sep-09 12:32N 52°28' E 004°35'0 0.0
2014-Sep-09 11:32N 52°28' E 004°35'0 0.0
2014-Sep-09 10:32N 52°28' E 004°35'0 0.0
2014-Sep-09 09:29N 52°28' E 004°35'0 0.0
2014-Sep-09 08:32N 52°28' E 004°35'0 0.0
2014-Sep-09 07:34N 52°28' E 004°35'1111.0
2014-Sep-09 06:33N 52°34' E 004°20'234204.1
2014-Sep-09 05:25N 54°53' W 000°58'71 8.9
2014-Sep-08 21:28N 54°14' E 000°44'1517.2
2014-Sep-08 20:34N 54°22' E 000°21'1716.8
2014-Sep-08 19:34N 54°31' W 000°03'1717.2
2014-Sep-08 18:34N 54°41' W 000°28'2518.1
2014-Sep-08 17:10N 54°55' W 001°04'1218.4
2014-Sep-08 16:33N 55°00' W 001°21'0 0.0
2014-Sep-08 07:23N 55°00' W 001°21'2017.9
2014-Sep-08 06:15N 54°50' W 000°51'1715.8
2014-Sep-08 05:11N 54°40' W 000°26'1016.5
2014-Sep-08 04:33N 54°35' W 000°12'1616.3
2014-Sep-08 03:33N 54°26' E 000°12'1616.1
2014-Sep-08 02:32N 54°16' E 000°34'1716.5
2014-Sep-08 01:31N 54°07' E 000°59'10517.6
2014-Sep-07 19:33N 53°04' E 003°21'4514.5
2014-Sep-07 16:29N 52°36' E 004°18'1314.1
2014-Sep-07 15:33N 52°28' E 004°34'0 0.4
2014-Sep-07 14:32N 52°28' E 004°35'0 0.0
2014-Sep-07 13:32N 52°28' E 004°35'0 0.0
2014-Sep-07 12:32N 52°28' E 004°35'0 0.0
2014-Sep-07 11:32N 52°28' E 004°35'0 0.0
2014-Sep-07 10:32N 52°28' E 004°35'0 0.0
2014-Sep-07 09:32N 52°28' E 004°35'0 0.0
2014-Sep-07 08:32N 52°28' E 004°35'0 0.1
2014-Sep-07 07:33N 52°28' E 004°35'  

Dump ship's entire track history